HIDDEN DAM (HENSLEY) (HID)

Elevation: 561' · FRESNO R basin · Operator: US Army Corps of Engineers

Provisional data, subject to change.
Query executed Thursday at 17:55:15   clock

Select a sensor type for a plot of data.
Note: Reservoir Flows are daily averages.

Earlier

Date RES ELE    STORAGE    RES CHG    TOC STO    ABV TOC    OUTFLOW    INFLOW    PPT INC    TEMP MN    TEMP MX    WINDLEN    EVP PAN   
 FEET   AF   AF   AF   AF   CFS   CFS   INCHES   DEG F   DEG F   MILES   INCHES  
07/01/2015 449.24 5328 -35 90000 -84672 32 17 0.00 26 39 118 0.28
07/02/2015 449.20 5316 -12 90000 -84684 3 0 0.00 25 37 122 0.30
07/03/2015 449.17 5307 -9 90000 -84693 4 3 0.00 21 39 114 0.38
07/04/2015 449.16 5304 -3 90000 -84696 4 5 0.00 22 40 132 0.40
07/05/2015 449.12 5292 -12 90000 -84708 4 2 0.00 21 36 125 0.37
07/06/2015 449.06 5275 -17 90000 -84725 2 -3 0.00 19 35 185 0.39
07/07/2015 449.02 5263 -12 90000 -84737 0 -3 0.00 18 34 153 0.36
07/08/2015 449.03 5266 3 90000 -84734 0 5 0.00 18 32 146 0.35
07/09/2015 449.01 5260 -6 90000 -84740 0 -0 0.00 15 29 128 0.28
07/10/2015 448.98 5251 -9 90000 -84749 0 -2 0.00 18 30 130 0.27
07/11/2015 448.99 5254 3 90000 -84746 0 5 0.00 16 33 134 0.34
07/12/2015 448.96 5246 -8 90000 -84754 0 -1 0.00 18 33 140 0.33
07/13/2015 448.94 5240 -6 90000 -84760 0 0 0.00 19 34 150 0.35
07/14/2015 448.94 5240 0 90000 -84760 0 3 0.00 18 35 124 0.36
07/15/2015 448.92 5234 -6 90000 -84766 0 0 0.00 17 35 110 0.35
07/16/2015 448.90 5228 -6 90000 -84772 0 0 0.00 19 37 121 0.37
07/17/2015 448.88 5222 -6 90000 -84778 0 0 0.00 19 38 112 0.36
07/18/2015 448.84 5211 -11 90000 -84789 0 -2 0.00 20 38 147 0.40
07/19/2015 448.79 5196 -15 90000 -84804 0 -5 0.00 22 33 118 0.28
07/20/2015 448.81 5202 6 90000 -84798 0 6 0.00 23 36 148 0.35
07/21/2015 448.80 5199 -3 90000 -84801 0 2 0.00 25 38 128 0.36
07/22/2015 448.76 5187 -12 90000 -84813 0 -3 0.00 22 35 137 0.36
07/23/2015 448.73 5181 -5 90000 -84818 0 -2 0.00 16 33 123 0.34
07/24/2015 448.70 5170 -23 90000 -84841 0 -2 0.00 18 35 120 0.35
07/25/2015 448.67 5160 0 90000 -84841 0 -1 0.00 19 36 132 0.37
07/26/2015 448.64 5155 -158 90000 -84845 0 0 0.00 18 36 117 0.33
07/27/2015 448.63 5150 -5 90000 -84850 0 1 0.00 17 36 129 0.36
07/28/2015 448.60 5141 -9 90000 -84859 0 -1 0.00 19 39 119 0.37
07/29/2015 448.58 5135 -6 90000 -84865 0 1 0.00 22 42 129 0.40
07/30/2015 -- -- -- -- -- -- -- -- -- -- -- --

Later | Latest

Warning! This data is preliminary and subject to revision.

Show HID Map | Plot HID Data | 1 Month HID Data | Real-Time HID Data | HID Info